Time;durP1;ratioP1;P1;durP2;ratioP2;P2;SDS_P1;SDS_P2;PMS_P1;PMS_P2;Temp;Humidity;BMP_temperature;BMP_pressure;BME280_temperature;BME280_humidity;BME280_pressure;Samples;Min_cycle;Max_cycle;Signal;HPM_P1;HPM_P2
2023/02/27 00:00:00;;;;;;;3.1;3.0;;;;;;;0.4;100.0;102650;;;;
2023/02/27 00:01:00;;;;;;;3.1;3.0;;;;;;;0.4;100.0;102650;;;;
2023/02/27 00:02:00;;;;;;;3.1;3.0;;;;;;;0.4;100.0;102650;;;;
2023/02/27 00:03:00;;;;;;;3.1;3.0;;;;;;;0.4;100.0;102650;;;;
2023/02/27 00:04:00;;;;;;;3.1;3.0;;;;;;;0.4;100.0;102650;;;;
2023/02/27 00:05:01;;;;;;;3.3;3.2;;;;;;;0.4;100.0;102650;;;;
2023/02/27 00:06:00;;;;;;;3.3;3.2;;;;;;;0.4;100.0;102650;;;;
2023/02/27 00:07:00;;;;;;;3.3;3.2;;;;;;;0.4;100.0;102650;;;;
2023/02/27 00:08:00;;;;;;;3.3;3.2;;;;;;;0.3;100.0;102650;;;;
2023/02/27 00:09:00;;;;;;;3.3;3.2;;;;;;;0.3;100.0;102650;;;;
2023/02/27 00:10:00;;;;;;;3.3;3.2;;;;;;;0.3;100.0;102650;;;;
2023/02/27 00:11:00;;;;;;;3.3;3.2;;;;;;;0.3;100.0;102650;;;;
2023/02/27 00:12:01;;;;;;;3.3;3.2;;;;;;;0.1;100.0;102650;;;;
2023/02/27 00:13:00;;;;;;;3.3;3.2;;;;;;;0.1;100.0;102650;;;;
2023/02/27 00:14:00;;;;;;;3.3;3.2;;;;;;;0.1;100.0;102650;;;;
2023/02/27 00:15:00;;;;;;;3.3;3.2;;;;;;;0.1;100.0;102650;;;;
2023/02/27 00:16:00;;;;;;;3.3;3.2;;;;;;;0.1;100.0;102650;;;;
2023/02/27 00:17:00;;;;;;;3.3;3.2;;;;;;;0.1;100.0;102650;;;;
2023/02/27 00:18:00;;;;;;;3.3;3.2;;;;;;;0.1;100.0;102650;;;;
2023/02/27 00:19:03;;;;;;;3.3;3.2;;;;;;;0.1;100.0;102650;;;;
2023/02/27 00:20:01;;;;;;;3.3;3.2;;;;;;;-0.0;100.0;102650;;;;
2023/02/27 00:21:00;;;;;;;3.3;3.2;;;;;;;-0.0;100.0;102650;;;;
2023/02/27 00:22:00;;;;;;;3.3;3.2;;;;;;;0.1;100.0;102650;;;;
2023/02/27 00:23:00;;;;;;;3.3;3.2;;;;;;;0.1;100.0;102650;;;;
2023/02/27 00:24:00;;;;;;;3.3;3.2;;;;;;;0.1;100.0;102650;;;;
2023/02/27 00:25:00;;;;;;;3.6;3.5;;;;;;;0.1;100.0;102650;;;;
2023/02/27 00:26:01;;;;;;;3.6;3.5;;;;;;;0.1;100.0;102640;;;;
2023/02/27 00:27:00;;;;;;;3.6;3.5;;;;;;;0.1;100.0;102640;;;;
2023/02/27 00:28:00;;;;;;;3.6;3.5;;;;;;;0.2;100.0;102640;;;;
2023/02/27 00:29:00;;;;;;;3.6;3.5;;;;;;;0.2;100.0;102640;;;;
2023/02/27 00:30:00;;;;;;;3.6;3.5;;;;;;;0.1;100.0;102640;;;;
2023/02/27 00:31:00;;;;;;;3.6;3.5;;;;;;;0.1;100.0;102640;;;;
2023/02/27 00:32:00;;;;;;;3.6;3.5;;;;;;;0.1;100.0;102640;;;;
2023/02/27 00:33:00;;;;;;;3.6;3.5;;;;;;;0.1;100.0;102640;;;;
2023/02/27 00:34:00;;;;;;;3.6;3.5;;;;;;;0.1;100.0;102640;;;;
2023/02/27 00:35:00;;;;;;;3.6;3.5;;;;;;;0.1;100.0;102640;;;;
2023/02/27 00:36:01;;;;;;;3.6;3.5;;;;;;;0.1;100.0;102640;;;;
2023/02/27 00:37:00;;;;;;;3.6;3.5;;;;;;;0.1;100.0;102640;;;;
2023/02/27 00:38:01;;;;;;;3.6;3.5;;;;;;;0.2;100.0;102640;;;;
2023/02/27 00:39:00;;;;;;;3.6;3.5;;;;;;;0.2;100.0;102640;;;;
2023/02/27 00:40:01;;;;;;;3.6;3.5;;;;;;;0.1;100.0;102650;;;;
2023/02/27 00:41:01;;;;;;;3.6;3.5;;;;;;;0.1;100.0;102650;;;;
2023/02/27 00:42:00;;;;;;;3.6;3.5;;;;;;;0.1;100.0;102650;;;;
2023/02/27 00:43:02;;;;;;;3.6;3.5;;;;;;;0.1;100.0;102650;;;;
2023/02/27 00:44:00;;;;;;;3.6;3.5;;;;;;;0.1;100.0;102650;;;;
2023/02/27 00:45:00;;;;;;;3.4;3.3;;;;;;;0.1;100.0;102650;;;;
2023/02/27 00:46:00;;;;;;;3.4;3.3;;;;;;;0.1;100.0;102650;;;;
2023/02/27 00:47:00;;;;;;;3.4;3.3;;;;;;;0.1;100.0;102650;;;;
2023/02/27 00:48:00;;;;;;;3.4;3.3;;;;;;;0.0;100.0;102640;;;;
2023/02/27 00:49:00;;;;;;;3.4;3.3;;;;;;;0.0;100.0;102640;;;;
2023/02/27 00:50:00;;;;;;;3.4;3.3;;;;;;;-0.0;100.0;102640;;;;
2023/02/27 00:51:00;;;;;;;3.4;3.3;;;;;;;-0.0;100.0;102640;;;;
2023/02/27 00:52:00;;;;;;;3.4;3.3;;;;;;;-0.0;100.0;102640;;;;
2023/02/27 00:53:00;;;;;;;3.4;3.3;;;;;;;-0.0;100.0;102640;;;;
2023/02/27 00:54:00;;;;;;;3.4;3.3;;;;;;;0.0;100.0;102640;;;;
2023/02/27 00:55:00;;;;;;;3.4;3.3;;;;;;;0.0;100.0;102640;;;;
2023/02/27 00:56:00;;;;;;;3.4;3.3;;;;;;;-0.0;100.0;102640;;;;
2023/02/27 00:57:00;;;;;;;3.4;3.3;;;;;;;-0.0;100.0;102640;;;;
2023/02/27 00:58:00;;;;;;;3.4;3.3;;;;;;;0.0;100.0;102640;;;;
2023/02/27 00:59:00;;;;;;;3.4;3.3;;;;;;;0.0;100.0;102640;;;;
2023/02/27 01:00:00;;;;;;;3.4;3.3;;;;;;;-0.0;100.0;102630;;;;
2023/02/27 01:01:00;;;;;;;3.4;3.3;;;;;;;-0.0;100.0;102630;;;;
2023/02/27 01:02:00;;;;;;;3.4;3.3;;;;;;;-0.1;100.0;102630;;;;
2023/02/27 01:03:00;;;;;;;3.4;3.3;;;;;;;-0.1;100.0;102630;;;;
2023/02/27 01:04:00;;;;;;;3.4;3.3;;;;;;;-0.0;100.0;102640;;;;
2023/02/27 01:05:00;;;;;;;3.8;3.7;;;;;;;-0.0;100.0;102640;;;;
2023/02/27 01:06:00;;;;;;;3.8;3.7;;;;;;;-0.1;100.0;102640;;;;
2023/02/27 01:07:00;;;;;;;3.8;3.7;;;;;;;-0.1;100.0;102640;;;;
2023/02/27 01:08:00;;;;;;;3.8;3.7;;;;;;;-0.1;100.0;102640;;;;
2023/02/27 01:09:00;;;;;;;3.8;3.7;;;;;;;-0.1;100.0;102640;;;;
2023/02/27 01:10:00;;;;;;;3.8;3.7;;;;;;;-0.1;100.0;102630;;;;
2023/02/27 01:11:00;;;;;;;3.8;3.7;;;;;;;-0.1;100.0;102630;;;;
2023/02/27 01:12:00;;;;;;;3.8;3.7;;;;;;;-0.1;100.0;102640;;;;
2023/02/27 01:13:00;;;;;;;3.8;3.7;;;;;;;-0.1;100.0;102640;;;;
2023/02/27 01:14:01;;;;;;;3.8;3.7;;;;;;;-0.1;100.0;102640;;;;
2023/02/27 01:15:00;;;;;;;3.8;3.7;;;;;;;-0.1;100.0;102640;;;;
2023/02/27 01:16:00;;;;;;;3.8;3.7;;;;;;;-0.2;100.0;102630;;;;
2023/02/27 01:17:00;;;;;;;3.8;3.7;;;;;;;-0.2;100.0;102630;;;;
2023/02/27 01:18:00;;;;;;;3.8;3.7;;;;;;;-0.2;100.0;102630;;;;
2023/02/27 01:19:00;;;;;;;3.8;3.7;;;;;;;-0.2;100.0;102630;;;;
2023/02/27 01:20:00;;;;;;;3.8;3.7;;;;;;;-0.2;100.0;102630;;;;
2023/02/27 01:21:00;;;;;;;3.8;3.7;;;;;;;-0.2;100.0;102630;;;;
2023/02/27 01:22:00;;;;;;;3.8;3.7;;;;;;;-0.2;100.0;102630;;;;
2023/02/27 01:23:00;;;;;;;3.8;3.7;;;;;;;-0.2;100.0;102630;;;;
2023/02/27 01:24:00;;;;;;;3.8;3.7;;;;;;;-0.3;100.0;102630;;;;
2023/02/27 01:25:00;;;;;;;3.7;3.6;;;;;;;-0.3;100.0;102630;;;;
2023/02/27 01:26:01;;;;;;;3.7;3.6;;;;;;;-0.3;100.0;102630;;;;
2023/02/27 01:27:00;;;;;;;3.7;3.6;;;;;;;-0.3;100.0;102630;;;;
2023/02/27 01:28:00;;;;;;;3.7;3.6;;;;;;;-0.3;100.0;102630;;;;
2023/02/27 01:29:00;;;;;;;3.7;3.6;;;;;;;-0.3;100.0;102630;;;;
2023/02/27 01:30:00;;;;;;;3.7;3.6;;;;;;;-0.3;100.0;102630;;;;
2023/02/27 01:31:00;;;;;;;3.7;3.6;;;;;;;-0.3;100.0;102630;;;;
2023/02/27 01:32:01;;;;;;;3.7;3.6;;;;;;;-0.2;100.0;102630;;;;
2023/02/27 01:33:00;;;;;;;3.7;3.6;;;;;;;-0.2;100.0;102630;;;;
2023/02/27 01:34:00;;;;;;;3.7;3.6;;;;;;;-0.2;100.0;102630;;;;
2023/02/27 01:35:00;;;;;;;3.7;3.6;;;;;;;-0.2;100.0;102630;;;;
2023/02/27 01:36:00;;;;;;;3.7;3.6;;;;;;;-0.3;100.0;102630;;;;
2023/02/27 01:37:00;;;;;;;3.7;3.6;;;;;;;-0.3;100.0;102630;;;;
2023/02/27 01:38:00;;;;;;;3.7;3.6;;;;;;;-0.3;100.0;102630;;;;
2023/02/27 01:39:00;;;;;;;3.7;3.6;;;;;;;-0.3;100.0;102630;;;;
2023/02/27 01:40:01;;;;;;;3.7;3.6;;;;;;;-0.3;100.0;102620;;;;
2023/02/27 01:41:00;;;;;;;3.7;3.6;;;;;;;-0.3;100.0;102620;;;;
2023/02/27 01:42:00;;;;;;;3.7;3.6;;;;;;;-0.3;100.0;102620;;;;
2023/02/27 01:43:00;;;;;;;3.7;3.6;;;;;;;-0.3;100.0;102620;;;;
2023/02/27 01:44:03;;;;;;;3.7;3.6;;;;;;;-0.3;100.0;102630;;;;
2023/02/27 01:45:01;;;;;;;3.7;3.6;;;;;;;-0.3;100.0;102630;;;;
2023/02/27 01:46:00;;;;;;;3.7;3.6;;;;;;;-0.3;100.0;102620;;;;
2023/02/27 01:47:00;;;;;;;3.7;3.6;;;;;;;-0.3;100.0;102620;;;;
2023/02/27 01:48:04;;;;;;;3.7;3.6;;;;;;;-0.4;100.0;102620;;;;
2023/02/27 01:49:06;;;;;;;3.7;3.6;;;;;;;-0.4;100.0;102620;;;;
2023/02/27 01:50:00;;;;;;;3.7;3.6;;;;;;;-0.4;100.0;102620;;;;
2023/02/27 01:51:02;;;;;;;3.7;3.6;;;;;;;-0.4;100.0;102620;;;;
2023/02/27 01:52:04;;;;;;;3.7;3.6;;;;;;;-0.5;100.0;102620;;;;
2023/02/27 01:53:01;;;;;;;3.7;3.6;;;;;;;-0.5;100.0;102620;;;;
2023/02/27 01:54:01;;;;;;;3.7;3.6;;;;;;;-0.5;100.0;102620;;;;
2023/02/27 01:55:01;;;;;;;3.7;3.6;;;;;;;-0.5;100.0;102620;;;;
2023/02/27 01:56:04;;;;;;;3.7;3.6;;;;;;;-0.5;100.0;102620;;;;
2023/02/27 01:57:02;;;;;;;3.7;3.6;;;;;;;-0.5;100.0;102620;;;;
2023/02/27 01:58:00;;;;;;;3.7;3.6;;;;;;;-0.5;100.0;102620;;;;
2023/02/27 01:59:02;;;;;;;3.7;3.6;;;;;;;-0.5;100.0;102620;;;;
2023/02/27 02:00:00;;;;;;;3.7;3.6;;;;;;;-0.5;100.0;102620;;;;
2023/02/27 02:01:00;;;;;;;3.7;3.6;;;;;;;-0.5;100.0;102620;;;;
2023/02/27 02:02:02;;;;;;;3.7;3.6;;;;;;;-0.5;100.0;102620;;;;
2023/02/27 02:03:10;;;;;;;3.7;3.6;;;;;;;-0.5;100.0;102620;;;;
2023/02/27 02:04:10;;;;;;;3.7;3.6;;;;;;;-0.5;100.0;102620;;;;
2023/02/27 02:05:00;;;;;;;3.7;3.6;;;;;;;-0.5;100.0;102620;;;;
2023/02/27 02:06:01;;;;;;;3.7;3.6;;;;;;;-0.5;100.0;102620;;;;
2023/02/27 02:07:02;;;;;;;3.7;3.6;;;;;;;-0.5;100.0;102620;;;;
2023/02/27 02:08:01;;;;;;;3.7;3.6;;;;;;;-0.6;100.0;102620;;;;
2023/02/27 02:09:01;;;;;;;3.7;3.6;;;;;;;-0.6;100.0;102620;;;;
2023/02/27 02:10:01;;;;;;;3.7;3.6;;;;;;;-0.6;100.0;102620;;;;
2023/02/27 02:11:01;;;;;;;3.7;3.6;;;;;;;-0.6;100.0;102620;;;;
2023/02/27 02:12:00;;;;;;;3.7;3.6;;;;;;;-0.5;100.0;102620;;;;
2023/02/27 02:13:01;;;;;;;3.7;3.6;;;;;;;-0.5;100.0;102620;;;;
2023/02/27 02:14:02;;;;;;;3.7;3.6;;;;;;;-0.6;100.0;102620;;;;
2023/02/27 02:15:01;;;;;;;3.7;3.6;;;;;;;-0.6;100.0;102620;;;;
2023/02/27 02:16:10;;;;;;;3.7;3.6;;;;;;;-0.5;100.0;102620;;;;
2023/02/27 02:17:03;;;;;;;3.7;3.6;;;;;;;-0.5;100.0;102620;;;;
2023/02/27 02:18:10;;;;;;;3.7;3.6;;;;;;;-0.6;100.0;102620;;;;
2023/02/27 02:19:10;;;;;;;3.7;3.6;;;;;;;-0.6;100.0;102620;;;;
2023/02/27 02:20:10;;;;;;;3.7;3.6;;;;;;;-0.6;100.0;102620;;;;
2023/02/27 02:21:10;;;;;;;3.7;3.6;;;;;;;-0.6;100.0;102620;;;;
2023/02/27 02:22:10;;;;;;;3.7;3.6;;;;;;;-0.6;100.0;102620;;;;
2023/02/27 02:23:01;;;;;;;3.7;3.6;;;;;;;-0.6;100.0;102620;;;;
2023/02/27 02:24:08;;;;;;;3.7;3.6;;;;;;;-0.7;100.0;102620;;;;
2023/02/27 02:25:12;;;;;;;4.1;4.0;;;;;;;-0.7;100.0;102620;;;;
2023/02/27 02:26:01;;;;;;;4.1;4.0;;;;;;;-0.7;100.0;102620;;;;
2023/02/27 02:27:10;;;;;;;4.1;4.0;;;;;;;-0.7;100.0;102620;;;;
2023/02/27 02:28:10;;;;;;;4.1;4.0;;;;;;;-0.7;100.0;102620;;;;
2023/02/27 02:29:03;;;;;;;4.1;4.0;;;;;;;-0.7;100.0;102620;;;;
2023/02/27 02:30:10;;;;;;;4.1;4.0;;;;;;;-0.7;100.0;102610;;;;
2023/02/27 02:31:10;;;;;;;4.1;4.0;;;;;;;-0.7;100.0;102610;;;;
2023/02/27 02:32:08;;;;;;;4.1;4.0;;;;;;;-0.8;100.0;102610;;;;
2023/02/27 02:33:01;;;;;;;4.1;4.0;;;;;;;-0.8;100.0;102610;;;;
2023/02/27 02:34:12;;;;;;;4.1;4.0;;;;;;;-0.8;100.0;102610;;;;
2023/02/27 02:35:00;;;;;;;4.1;4.0;;;;;;;-0.8;100.0;102610;;;;
2023/02/27 02:36:10;;;;;;;4.1;4.0;;;;;;;-0.8;100.0;102610;;;;
2023/02/27 02:37:10;;;;;;;4.1;4.0;;;;;;;-0.8;100.0;102610;;;;
2023/02/27 02:38:10;;;;;;;4.1;4.0;;;;;;;-0.8;100.0;102610;;;;
2023/02/27 02:39:06;;;;;;;4.1;4.0;;;;;;;-0.8;100.0;102610;;;;
2023/02/27 02:40:10;;;;;;;4.1;4.0;;;;;;;-0.8;100.0;102610;;;;
2023/02/27 02:41:10;;;;;;;4.1;4.0;;;;;;;-0.8;100.0;102610;;;;
2023/02/27 02:42:03;;;;;;;4.1;4.0;;;;;;;-0.8;100.0;102620;;;;
2023/02/27 02:43:00;;;;;;;4.1;4.0;;;;;;;-0.8;100.0;102620;;;;
2023/02/27 02:44:07;;;;;;;4.1;4.0;;;;;;;-0.9;100.0;102620;;;;
2023/02/27 02:45:10;;;;;;;3.9;3.8;;;;;;;-0.9;100.0;102620;;;;
2023/02/27 02:46:08;;;;;;;3.9;3.8;;;;;;;-0.8;100.0;102620;;;;
2023/02/27 02:47:10;;;;;;;3.9;3.8;;;;;;;-0.8;100.0;102620;;;;
2023/02/27 02:48:00;;;;;;;3.9;3.8;;;;;;;-0.9;100.0;102620;;;;
2023/02/27 02:49:05;;;;;;;3.9;3.8;;;;;;;-0.9;100.0;102620;;;;
2023/02/27 02:50:08;;;;;;;3.9;3.8;;;;;;;-0.8;100.0;102620;;;;
2023/02/27 02:51:09;;;;;;;3.9;3.8;;;;;;;-0.8;100.0;102620;;;;
2023/02/27 02:52:05;;;;;;;3.9;3.8;;;;;;;-0.8;100.0;102620;;;;
2023/02/27 02:53:00;;;;;;;3.9;3.8;;;;;;;-0.8;100.0;102620;;;;
2023/02/27 02:54:05;;;;;;;3.9;3.8;;;;;;;-0.9;100.0;102620;;;;
2023/02/27 02:55:05;;;;;;;3.9;3.8;;;;;;;-0.9;100.0;102620;;;;
2023/02/27 02:56:07;;;;;;;3.9;3.8;;;;;;;-0.9;100.0;102620;;;;
2023/02/27 02:57:00;;;;;;;3.9;3.8;;;;;;;-0.9;100.0;102620;;;;
2023/02/27 02:58:05;;;;;;;3.9;3.8;;;;;;;-1.0;100.0;102620;;;;
2023/02/27 02:59:05;;;;;;;3.9;3.8;;;;;;;-1.0;100.0;102620;;;;
2023/02/27 03:00:10;;;;;;;3.9;3.8;;;;;;;-0.9;100.0;102620;;;;
2023/02/27 03:01:10;;;;;;;3.9;3.8;;;;;;;-0.9;100.0;102620;;;;
2023/02/27 03:02:10;;;;;;;3.9;3.8;;;;;;;-0.9;100.0;102620;;;;
2023/02/27 03:03:10;;;;;;;3.9;3.8;;;;;;;-0.9;100.0;102620;;;;
2023/02/27 03:04:05;;;;;;;3.7;3.6;;;;;;;-1.0;100.0;102620;;;;
2023/02/27 03:05:04;;;;;;;3.7;3.6;;;;;;;-1.0;100.0;102620;;;;
2023/02/27 03:06:05;;;;;;;3.7;3.6;;;;;;;-0.9;100.0;102620;;;;
2023/02/27 03:07:04;;;;;;;3.7;3.6;;;;;;;-0.9;100.0;102620;;;;
2023/02/27 03:08:04;;;;;;;3.7;3.6;;;;;;;-0.9;100.0;102630;;;;
2023/02/27 03:09:06;;;;;;;3.7;3.6;;;;;;;-0.9;100.0;102630;;;;
2023/02/27 03:10:04;;;;;;;3.7;3.6;;;;;;;-0.9;100.0;102630;;;;
2023/02/27 03:11:03;;;;;;;3.7;3.6;;;;;;;-0.9;100.0;102630;;;;
2023/02/27 03:12:03;;;;;;;3.7;3.6;;;;;;;-0.9;100.0;102630;;;;
2023/02/27 03:13:04;;;;;;;3.7;3.6;;;;;;;-0.9;100.0;102630;;;;
2023/02/27 03:14:07;;;;;;;3.7;3.6;;;;;;;-0.9;100.0;102640;;;;
2023/02/27 03:15:05;;;;;;;3.7;3.6;;;;;;;-0.9;100.0;102640;;;;
2023/02/27 03:16:06;;;;;;;3.7;3.6;;;;;;;-0.9;100.0;102630;;;;
2023/02/27 03:17:05;;;;;;;3.7;3.6;;;;;;;-0.9;100.0;102630;;;;
2023/02/27 03:18:05;;;;;;;3.7;3.6;;;;;;;-0.9;100.0;102640;;;;
2023/02/27 03:19:00;;;;;;;3.7;3.6;;;;;;;-0.9;100.0;102640;;;;
2023/02/27 03:20:03;;;;;;;3.7;3.6;;;;;;;-0.9;100.0;102640;;;;
2023/02/27 03:21:03;;;;;;;3.7;3.6;;;;;;;-0.9;100.0;102640;;;;
2023/02/27 03:22:04;;;;;;;3.7;3.6;;;;;;;-0.9;100.0;102640;;;;
2023/02/27 03:23:04;;;;;;;3.7;3.6;;;;;;;-0.9;100.0;102640;;;;
2023/02/27 03:24:03;;;;;;;4.3;4.2;;;;;;;-0.8;100.0;102640;;;;
2023/02/27 03:25:01;;;;;;;4.3;4.2;;;;;;;-0.8;100.0;102640;;;;
2023/02/27 03:26:02;;;;;;;4.3;4.2;;;;;;;-0.9;100.0;102640;;;;
2023/02/27 03:27:01;;;;;;;4.3;4.2;;;;;;;-0.9;100.0;102640;;;;
2023/02/27 03:28:05;;;;;;;4.3;4.2;;;;;;;-0.9;100.0;102640;;;;
2023/02/27 03:29:03;;;;;;;4.3;4.2;;;;;;;-0.9;100.0;102640;;;;
2023/02/27 03:30:10;;;;;;;4.3;4.2;;;;;;;-0.9;100.0;102640;;;;
2023/02/27 03:31:07;;;;;;;4.3;4.2;;;;;;;-0.9;100.0;102640;;;;
2023/02/27 03:32:07;;;;;;;4.3;4.2;;;;;;;-1.0;100.0;102640;;;;
2023/02/27 03:33:07;;;;;;;4.3;4.2;;;;;;;-1.0;100.0;102640;;;;
2023/02/27 03:34:06;;;;;;;4.3;4.2;;;;;;;-1.0;100.0;102640;;;;
2023/02/27 03:35:01;;;;;;;4.3;4.2;;;;;;;-1.0;100.0;102640;;;;
2023/02/27 03:36:07;;;;;;;4.3;4.2;;;;;;;-1.0;100.0;102650;;;;
2023/02/27 03:37:00;;;;;;;4.3;4.2;;;;;;;-1.0;100.0;102650;;;;
2023/02/27 03:38:06;;;;;;;4.3;4.2;;;;;;;-1.0;100.0;102650;;;;
2023/02/27 03:39:09;;;;;;;4.3;4.2;;;;;;;-1.0;100.0;102650;;;;
2023/02/27 03:40:00;;;;;;;4.3;4.2;;;;;;;-1.0;100.0;102650;;;;
2023/02/27 03:41:00;;;;;;;4.3;4.2;;;;;;;-1.0;100.0;102650;;;;
2023/02/27 03:42:07;;;;;;;4.3;4.2;;;;;;;-1.0;100.0;102650;;;;
2023/02/27 03:43:10;;;;;;;4.3;4.2;;;;;;;-1.0;100.0;102650;;;;
2023/02/27 03:44:10;;;;;;;3.7;3.6;;;;;;;-1.0;100.0;102650;;;;
2023/02/27 03:45:03;;;;;;;3.7;3.6;;;;;;;-1.0;100.0;102650;;;;
2023/02/27 03:46:06;;;;;;;3.7;3.6;;;;;;;-1.0;100.0;102650;;;;
2023/02/27 03:47:00;;;;;;;3.7;3.6;;;;;;;-1.0;100.0;102650;;;;
2023/02/27 03:48:01;;;;;;;3.7;3.6;;;;;;;-1.0;100.0;102650;;;;
2023/02/27 03:49:00;;;;;;;3.7;3.6;;;;;;;-1.0;100.0;102650;;;;
2023/02/27 03:50:00;;;;;;;3.7;3.6;;;;;;;-1.0;100.0;102650;;;;
2023/02/27 03:51:00;;;;;;;3.7;3.6;;;;;;;-1.0;100.0;102650;;;;
2023/02/27 03:52:00;;;;;;;3.7;3.6;;;;;;;-1.1;100.0;102650;;;;
2023/02/27 03:53:02;;;;;;;3.7;3.6;;;;;;;-1.1;100.0;102650;;;;
2023/02/27 03:54:03;;;;;;;3.7;3.6;;;;;;;-1.1;100.0;102650;;;;
2023/02/27 03:55:04;;;;;;;3.7;3.6;;;;;;;-1.1;100.0;102650;;;;
2023/02/27 03:56:02;;;;;;;3.7;3.6;;;;;;;-1.1;100.0;102660;;;;
2023/02/27 03:57:03;;;;;;;3.7;3.6;;;;;;;-1.1;100.0;102660;;;;
2023/02/27 03:58:00;;;;;;;3.7;3.6;;;;;;;-1.1;100.0;102650;;;;
2023/02/27 03:59:00;;;;;;;3.7;3.6;;;;;;;-1.1;100.0;102650;;;;
2023/02/27 04:00:00;;;;;;;3.7;3.6;;;;;;;-1.1;100.0;102660;;;;
2023/02/27 04:01:00;;;;;;;3.7;3.6;;;;;;;-1.1;100.0;102660;;;;
2023/02/27 04:02:01;;;;;;;3.7;3.6;;;;;;;-1.2;100.0;102660;;;;
2023/02/27 04:03:01;;;;;;;3.7;3.6;;;;;;;-1.2;100.0;102660;;;;
2023/02/27 04:04:03;;;;;;;4.1;4.0;;;;;;;-1.0;100.0;102660;;;;
2023/02/27 04:05:00;;;;;;;4.1;4.0;;;;;;;-1.0;100.0;102660;;;;
2023/02/27 04:07:21;;;;;;;4.1;4.0;;;;;;;-1.1;100.0;102660;;;;
2023/02/27 04:08:10;;;;;;;4.1;4.0;;;;;;;-1.1;100.0;102650;;;;
2023/02/27 04:09:05;;;;;;;4.1;4.0;;;;;;;-1.1;100.0;102650;;;;
2023/02/27 04:10:10;;;;;;;4.1;4.0;;;;;;;-1.1;100.0;102660;;;;
2023/02/27 04:11:10;;;;;;;4.1;4.0;;;;;;;-1.1;100.0;102660;;;;
2023/02/27 04:12:10;;;;;;;4.1;4.0;;;;;;;-1.1;100.0;102650;;;;
2023/02/27 04:13:03;;;;;;;4.1;4.0;;;;;;;-1.1;100.0;102650;;;;
2023/02/27 04:14:11;;;;;;;4.1;4.0;;;;;;;-1.2;100.0;102650;;;;
2023/02/27 04:15:00;;;;;;;4.1;4.0;;;;;;;-1.2;100.0;102650;;;;
2023/02/27 04:16:11;;;;;;;4.1;4.0;;;;;;;-1.2;100.0;102660;;;;
2023/02/27 04:17:07;;;;;;;4.1;4.0;;;;;;;-1.2;100.0;102660;;;;
2023/02/27 04:18:09;;;;;;;4.1;4.0;;;;;;;-1.2;100.0;102660;;;;
2023/02/27 04:19:10;;;;;;;4.1;4.0;;;;;;;-1.2;100.0;102660;;;;
2023/02/27 04:20:12;;;;;;;4.1;4.0;;;;;;;-1.2;100.0;102670;;;;
2023/02/27 04:21:03;;;;;;;4.1;4.0;;;;;;;-1.2;100.0;102670;;;;
2023/02/27 04:22:07;;;;;;;4.1;4.0;;;;;;;-1.2;100.0;102660;;;;
2023/02/27 04:23:10;;;;;;;4.1;4.0;;;;;;;-1.2;100.0;102660;;;;
2023/02/27 04:24:10;;;;;;;4.2;4.1;;;;;;;-1.2;100.0;102670;;;;
2023/02/27 04:25:03;;;;;;;4.2;4.1;;;;;;;-1.2;100.0;102670;;;;
2023/02/27 04:26:10;;;;;;;4.2;4.1;;;;;;;-1.2;100.0;102670;;;;
2023/02/27 04:27:01;;;;;;;4.2;4.1;;;;;;;-1.2;100.0;102670;;;;
2023/02/27 04:28:10;;;;;;;4.2;4.1;;;;;;;-1.3;100.0;102670;;;;
2023/02/27 04:29:03;;;;;;;4.2;4.1;;;;;;;-1.3;100.0;102670;;;;
2023/02/27 04:30:01;;;;;;;4.2;4.1;;;;;;;-1.2;100.0;102680;;;;
2023/02/27 04:31:08;;;;;;;4.2;4.1;;;;;;;-1.2;100.0;102680;;;;
2023/02/27 04:32:04;;;;;;;4.2;4.1;;;;;;;-1.3;100.0;102680;;;;
2023/02/27 04:33:10;;;;;;;4.2;4.1;;;;;;;-1.3;100.0;102680;;;;
2023/02/27 04:34:10;;;;;;;4.2;4.1;;;;;;;-1.3;100.0;102680;;;;
2023/02/27 04:35:10;;;;;;;4.2;4.1;;;;;;;-1.3;100.0;102680;;;;
2023/02/27 04:36:05;;;;;;;4.2;4.1;;;;;;;-1.3;100.0;102680;;;;
2023/02/27 04:37:00;;;;;;;4.2;4.1;;;;;;;-1.3;100.0;102680;;;;
2023/02/27 04:38:06;;;;;;;4.2;4.1;;;;;;;-1.4;100.0;102680;;;;
2023/02/27 04:39:05;;;;;;;4.2;4.1;;;;;;;-1.4;100.0;102680;;;;
2023/02/27 04:40:05;;;;;;;4.2;4.1;;;;;;;-1.4;100.0;102680;;;;
2023/02/27 04:41:04;;;;;;;4.2;4.1;;;;;;;-1.4;100.0;102680;;;;
2023/02/27 04:42:02;;;;;;;4.2;4.1;;;;;;;-1.4;100.0;102680;;;;
2023/02/27 04:43:03;;;;;;;4.2;4.1;;;;;;;-1.4;100.0;102680;;;;
2023/02/27 04:44:02;;;;;;;4.1;4.0;;;;;;;-1.4;100.0;102680;;;;
2023/02/27 04:45:03;;;;;;;4.1;4.0;;;;;;;-1.4;100.0;102680;;;;
2023/02/27 04:46:02;;;;;;;4.1;4.0;;;;;;;-1.4;100.0;102680;;;;
2023/02/27 04:47:02;;;;;;;4.1;4.0;;;;;;;-1.4;100.0;102680;;;;
2023/02/27 04:48:04;;;;;;;4.1;4.0;;;;;;;-1.4;100.0;102680;;;;
2023/02/27 04:49:07;;;;;;;4.1;4.0;;;;;;;-1.4;100.0;102680;;;;
2023/02/27 04:50:06;;;;;;;4.1;4.0;;;;;;;-1.4;100.0;102680;;;;
2023/02/27 04:51:06;;;;;;;4.1;4.0;;;;;;;-1.4;100.0;102680;;;;
2023/02/27 04:52:05;;;;;;;4.1;4.0;;;;;;;-1.5;100.0;102690;;;;
2023/02/27 04:53:05;;;;;;;4.1;4.0;;;;;;;-1.5;100.0;102690;;;;
2023/02/27 04:54:05;;;;;;;4.1;4.0;;;;;;;-1.5;100.0;102680;;;;
2023/02/27 04:55:04;;;;;;;4.1;4.0;;;;;;;-1.5;100.0;102680;;;;
2023/02/27 04:56:03;;;;;;;4.1;4.0;;;;;;;-1.4;100.0;102690;;;;
2023/02/27 04:57:03;;;;;;;4.1;4.0;;;;;;;-1.4;100.0;102690;;;;
2023/02/27 04:58:04;;;;;;;4.1;4.0;;;;;;;-1.4;100.0;102690;;;;
2023/02/27 04:59:02;;;;;;;4.1;4.0;;;;;;;-1.4;100.0;102690;;;;
2023/02/27 05:00:04;;;;;;;4.1;4.0;;;;;;;-1.5;100.0;102690;;;;
2023/02/27 05:01:03;;;;;;;4.1;4.0;;;;;;;-1.5;100.0;102690;;;;
2023/02/27 05:02:06;;;;;;;4.1;4.0;;;;;;;-1.5;100.0;102690;;;;
2023/02/27 05:03:05;;;;;;;4.1;4.0;;;;;;;-1.5;100.0;102690;;;;
2023/02/27 05:04:02;;;;;;;4.1;4.0;;;;;;;-1.5;100.0;102690;;;;
2023/02/27 05:05:03;;;;;;;4.1;4.0;;;;;;;-1.5;100.0;102690;;;;
2023/02/27 05:06:01;;;;;;;4.1;4.0;;;;;;;-1.6;100.0;102690;;;;
2023/02/27 05:07:02;;;;;;;4.1;4.0;;;;;;;-1.6;100.0;102690;;;;
2023/02/27 05:08:02;;;;;;;4.1;4.0;;;;;;;-1.5;100.0;102690;;;;
2023/02/27 05:09:03;;;;;;;4.1;4.0;;;;;;;-1.5;100.0;102690;;;;
2023/02/27 05:10:03;;;;;;;4.1;4.0;;;;;;;-1.6;100.0;102690;;;;
2023/02/27 05:11:06;;;;;;;4.1;4.0;;;;;;;-1.6;100.0;102690;;;;
2023/02/27 05:12:02;;;;;;;4.1;4.0;;;;;;;-1.5;100.0;102690;;;;
2023/02/27 05:13:04;;;;;;;4.1;4.0;;;;;;;-1.5;100.0;102690;;;;
2023/02/27 05:14:07;;;;;;;4.1;4.0;;;;;;;-1.6;100.0;102690;;;;
2023/02/27 05:15:04;;;;;;;4.1;4.0;;;;;;;-1.6;100.0;102690;;;;
2023/02/27 05:16:07;;;;;;;4.1;4.0;;;;;;;-1.5;100.0;102690;;;;
2023/02/27 05:17:04;;;;;;;4.1;4.0;;;;;;;-1.5;100.0;102690;;;;
2023/02/27 05:18:02;;;;;;;4.1;4.0;;;;;;;-1.5;100.0;102690;;;;
2023/02/27 05:19:01;;;;;;;4.1;4.0;;;;;;;-1.5;100.0;102690;;;;
2023/02/27 05:20:01;;;;;;;4.1;4.0;;;;;;;-1.6;100.0;102690;;;;
2023/02/27 05:21:07;;;;;;;4.1;4.0;;;;;;;-1.6;100.0;102690;;;;
2023/02/27 05:22:10;;;;;;;4.1;4.0;;;;;;;-1.5;100.0;102690;;;;
2023/02/27 05:23:10;;;;;;;4.1;4.0;;;;;;;-1.5;100.0;102690;;;;
2023/02/27 05:24:00;;;;;;;4.0;3.9;;;;;;;-1.6;100.0;102680;;;;
2023/02/27 05:25:05;;;;;;;4.0;3.9;;;;;;;-1.6;100.0;102680;;;;
2023/02/27 05:26:07;;;;;;;4.0;3.9;;;;;;;-1.6;100.0;102690;;;;
2023/02/27 05:27:09;;;;;;;4.0;3.9;;;;;;;-1.6;100.0;102690;;;;
2023/02/27 05:28:03;;;;;;;4.0;3.9;;;;;;;-1.6;100.0;102690;;;;
2023/02/27 05:29:07;;;;;;;4.0;3.9;;;;;;;-1.6;100.0;102690;;;;
2023/02/27 05:30:03;;;;;;;4.0;3.9;;;;;;;-1.6;100.0;102690;;;;
2023/02/27 05:31:03;;;;;;;4.0;3.9;;;;;;;-1.6;100.0;102690;;;;
2023/02/27 05:32:10;;;;;;;4.0;3.9;;;;;;;-1.6;100.0;102690;;;;
2023/02/27 05:33:10;;;;;;;4.0;3.9;;;;;;;-1.6;100.0;102690;;;;
2023/02/27 05:34:10;;;;;;;4.0;3.9;;;;;;;-1.5;100.0;102700;;;;
2023/02/27 05:35:02;;;;;;;4.0;3.9;;;;;;;-1.5;100.0;102700;;;;
2023/02/27 05:36:10;;;;;;;4.0;3.9;;;;;;;-1.6;100.0;102700;;;;
2023/02/27 05:37:03;;;;;;;4.0;3.9;;;;;;;-1.6;100.0;102700;;;;
2023/02/27 05:38:10;;;;;;;4.0;3.9;;;;;;;-1.6;100.0;102710;;;;
2023/02/27 05:39:03;;;;;;;4.0;3.9;;;;;;;-1.6;100.0;102710;;;;
2023/02/27 05:40:07;;;;;;;4.0;3.9;;;;;;;-1.6;100.0;102710;;;;
2023/02/27 05:41:04;;;;;;;4.0;3.9;;;;;;;-1.6;100.0;102710;;;;
2023/02/27 05:42:03;;;;;;;4.0;3.9;;;;;;;-1.6;100.0;102710;;;;
2023/02/27 05:43:08;;;;;;;4.0;3.9;;;;;;;-1.6;100.0;102710;;;;
2023/02/27 05:44:10;;;;;;;4.2;4.1;;;;;;;-1.6;100.0;102710;;;;
2023/02/27 05:45:10;;;;;;;4.2;4.1;;;;;;;-1.6;100.0;102710;;;;
2023/02/27 05:46:04;;;;;;;4.2;4.1;;;;;;;-1.6;100.0;102710;;;;
2023/02/27 05:47:05;;;;;;;4.2;4.1;;;;;;;-1.6;100.0;102710;;;;
2023/02/27 05:48:04;;;;;;;4.2;4.1;;;;;;;-1.6;100.0;102720;;;;
2023/02/27 05:49:03;;;;;;;4.2;4.1;;;;;;;-1.6;100.0;102720;;;;
2023/02/27 05:50:04;;;;;;;4.2;4.1;;;;;;;-1.7;100.0;102720;;;;
2023/02/27 05:51:01;;;;;;;4.2;4.1;;;;;;;-1.7;100.0;102720;;;;
2023/02/27 05:52:03;;;;;;;4.2;4.1;;;;;;;-1.6;100.0;102720;;;;
2023/02/27 05:53:03;;;;;;;4.2;4.1;;;;;;;-1.6;100.0;102720;;;;
2023/02/27 05:54:05;;;;;;;4.2;4.1;;;;;;;-1.6;100.0;102720;;;;
2023/02/27 05:55:03;;;;;;;4.2;4.1;;;;;;;-1.6;100.0;102720;;;;
2023/02/27 05:56:03;;;;;;;4.2;4.1;;;;;;;-1.6;100.0;102720;;;;
2023/02/27 05:57:01;;;;;;;4.2;4.1;;;;;;;-1.6;100.0;102720;;;;
2023/02/27 05:58:00;;;;;;;4.2;4.1;;;;;;;-1.6;100.0;102720;;;;
2023/02/27 05:59:05;;;;;;;4.2;4.1;;;;;;;-1.6;100.0;102720;;;;
2023/02/27 06:00:02;;;;;;;4.2;4.1;;;;;;;-1.6;100.0;102720;;;;
2023/02/27 06:01:03;;;;;;;4.2;4.1;;;;;;;-1.6;100.0;102720;;;;
2023/02/27 06:02:00;;;;;;;4.2;4.1;;;;;;;-1.7;100.0;102720;;;;
2023/02/27 06:03:00;;;;;;;4.2;4.1;;;;;;;-1.7;100.0;102720;;;;
2023/02/27 06:04:01;;;;;;;4.2;4.1;;;;;;;-1.6;100.0;102730;;;;
2023/02/27 06:05:00;;;;;;;4.2;4.1;;;;;;;-1.6;100.0;102730;;;;
2023/02/27 06:06:02;;;;;;;4.2;4.1;;;;;;;-1.6;100.0;102720;;;;
2023/02/27 06:07:03;;;;;;;4.2;4.1;;;;;;;-1.6;100.0;102720;;;;
2023/02/27 06:08:00;;;;;;;4.2;4.1;;;;;;;-1.6;100.0;102720;;;;
2023/02/27 06:09:00;;;;;;;4.2;4.1;;;;;;;-1.6;100.0;102720;;;;
2023/02/27 06:10:00;;;;;;;4.2;4.1;;;;;;;-1.5;100.0;102730;;;;
2023/02/27 06:11:00;;;;;;;4.2;4.1;;;;;;;-1.5;100.0;102730;;;;
2023/02/27 06:12:01;;;;;;;4.2;4.1;;;;;;;-1.7;100.0;102730;;;;
2023/02/27 06:13:00;;;;;;;4.2;4.1;;;;;;;-1.7;100.0;102730;;;;
2023/02/27 06:14:00;;;;;;;4.2;4.1;;;;;;;-1.7;100.0;102730;;;;
2023/02/27 06:15:00;;;;;;;4.2;4.1;;;;;;;-1.7;100.0;102730;;;;
2023/02/27 06:16:00;;;;;;;4.2;4.1;;;;;;;-1.8;100.0;102730;;;;
2023/02/27 06:17:00;;;;;;;4.2;4.1;;;;;;;-1.8;100.0;102730;;;;
2023/02/27 06:18:00;;;;;;;4.2;4.1;;;;;;;-1.8;100.0;102730;;;;
2023/02/27 06:19:01;;;;;;;4.2;4.1;;;;;;;-1.8;100.0;102730;;;;
2023/02/27 06:20:00;;;;;;;4.2;4.1;;;;;;;-1.8;100.0;102740;;;;
2023/02/27 06:21:00;;;;;;;4.2;4.1;;;;;;;-1.8;100.0;102740;;;;
2023/02/27 06:22:00;;;;;;;4.2;4.1;;;;;;;-1.7;100.0;102740;;;;
2023/02/27 06:23:00;;;;;;;4.2;4.1;;;;;;;-1.7;100.0;102740;;;;
2023/02/27 06:24:00;;;;;;;4.1;4.0;;;;;;;-1.8;100.0;102740;;;;